Abu Musa, Iran

9:21 AM IRDT on July 12, 2014 (GMT +0430)
Abumusa (OIBA) Elev 23 ft | 25.88 °N, 55.03 °E | Change Station

Current weather conditions updated 51 minutes ago

Clear
Clear
91 °F
Feels Like 111 °F
N
12
Wind Variable Wind from SW

Today is forecast to be nearly the same temperature as yesterday.

Today
High -- | Low -- °F
--% Chance of Precip.
Yesterday
High -- | Low -- °F
Precip. -- in
6:07 AM 7:45 PM
Full, 100% visible
Pressure 29.47 in
Visibility -9999.0 miles
Clouds
Heat Index 111 °F
Dew Point 81 °F
Humidity 71%
Rainfall 0.00 in
Snow Depth Not available.
UV Not available.
Pollen Not available.
Air Quality Not available.
Flu Activity Not available.
METAR OIBA 120400Z 22010KT CAVOK 33/27 Q0998

More Conditions Fewer Conditions

Pressure 29.47 in
Visibility -9999.0 miles
Clouds
Heat Index 111 °F
Dew Point 81 °F
Humidity 71%
Rainfall 0.00 in
Snow Depth Not available.
UV Not available.
Pollen Not available.
Air Quality Not available.
Flu Activity Not available.
METAR OIBA 120400Z 22010KT CAVOK 33/27 Q0998

More Conditions Fewer Conditions

10-Day Weather Forecast

Almanac

Astronomy

Jul. 12, 2014 Rise Set
Actual Time 6:07 AM IRDT 7:45 PM IRDT
Civil Twilight 5:41 AM IRDT 8:10 PM IRDT
Nautical Twilight 5:10 AM IRDT 8:41 PM IRDT
Astronomical Twilight 4:38 AM IRDT 9:13 PM IRDT
Moon 7:36 PM IRDT 5:52 AM IRDT
Length of Visible Light 14h 29m
Length of Day
13h 38m
Tomorrow will be 0m 41s shorter.
Full, 100% of the Moon is Illuminated
Today
Full
Jul 12
Full
Jul 18
Last Quarter
Jul 26
New
Aug 3
First Quarter

Yesterday's Extremes

Country Highs Country Lows

Community

WunderPhotos

Upload Photos

1,732,704 photos uploaded!

Nearby

Snow Depth

Not available.

Earthquake Activity

City Distance Mag. Time & Date
No recent earthquake activity has been reported nearby.
Minimum magnitude displayed is 2.5.

Coastal Water Temperatures

Place Temperature
No Stations Reporting

Nearby Weather Stations

There are no personal weather stations in this area.